Time;durP1;ratioP1;P1;durP2;ratioP2;P2;SDS_P1;SDS_P2;PMS_P1;PMS_P2;Temp;Humidity;BMP_temperature;BMP_pressure;BME280_temperature;BME280_humidity;BME280_pressure;Samples;Min_cycle;Max_cycle;Signal;HPM_P1;HPM_P2
2022/07/16 00:02:27;;;;;;;9.63;4.70;;;;;;;15.39;71.05;102114.63;5035167;28;20068;-79
2022/07/16 00:04:52;;;;;;;6.70;4.38;;;;;;;15.39;69.41;102110.25;5042678;28;20076;-79
2022/07/16 00:07:19;;;;;;;9.23;4.50;;;;;;;15.44;69.36;102110.13;5047793;28;20074;-79
2022/07/16 00:09:44;;;;;;;9.10;4.80;;;;;;;15.46;69.87;102113.56;5046726;28;20032;-79
2022/07/16 00:12:10;;;;;;;9.45;4.80;;;;;;;15.49;70.46;102112.66;5051828;28;20266;-79
2022/07/16 00:14:35;;;;;;;9.38;5.07;;;;;;;15.49;68.89;102110.88;5052115;28;20029;-79
2022/07/16 00:17:01;;;;;;;7.18;4.50;;;;;;;15.51;70.42;102098.63;5046114;28;20017;-79
2022/07/16 00:19:26;;;;;;;8.65;4.70;;;;;;;15.54;70.67;102106.44;5051696;28;20112;-79
2022/07/16 00:21:54;;;;;;;9.13;4.63;;;;;;;15.54;71.26;102111.69;5052529;28;20057;-79
2022/07/16 00:24:20;;;;;;;8.27;4.68;;;;;;;15.53;71.16;102099.50;5050930;28;20448;-79
2022/07/16 00:26:47;;;;;;;9.15;4.72;;;;;;;15.55;70.88;102107.31;5049761;28;20032;-78
2022/07/16 00:29:12;;;;;;;7.00;4.45;;;;;;;15.57;71.60;102108.13;5047432;28;20079;-79
2022/07/16 00:31:38;;;;;;;11.00;5.10;;;;;;;15.57;71.05;102106.34;5044772;28;20025;-79
2022/07/16 00:34:07;;;;;;;8.55;4.93;;;;;;;15.59;70.94;102104.56;5052603;28;20432;-79
2022/07/16 00:36:37;;;;;;;7.70;4.57;;;;;;;15.59;71.47;102101.97;5049460;28;20033;-79
2022/07/16 00:39:07;;;;;;;9.35;4.90;;;;;;;15.63;71.71;102100.13;5051715;28;20041;-79
2022/07/16 00:41:36;;;;;;;11.02;5.13;;;;;;;15.67;71.80;102107.00;5049974;28;20024;-79
2022/07/16 00:44:06;;;;;;;11.13;5.40;;;;;;;15.69;71.98;102102.59;5047802;28;20094;-79
2022/07/16 00:46:33;;;;;;;13.70;5.10;;;;;;;15.74;72.71;102106.81;5047384;28;20099;-79
2022/07/16 00:49:00;;;;;;;10.93;5.15;;;;;;;15.75;72.54;102102.44;5043663;28;20024;-79
2022/07/16 00:51:27;;;;;;;11.60;5.10;;;;;;;15.76;71.69;102097.16;5049482;28;20036;-79
2022/07/16 00:53:54;;;;;;;11.95;5.95;;;;;;;15.78;69.13;102100.59;5052033;28;20488;-80
2022/07/16 00:56:20;;;;;;;10.07;5.28;;;;;;;15.84;68.94;102114.41;5048903;28;20045;-80
2022/07/16 00:58:47;;;;;;;12.18;5.70;;;;;;;15.88;72.49;102103.00;5049067;28;20025;-77
2022/07/16 01:01:14;;;;;;;10.05;5.30;;;;;;;15.93;70.69;102098.50;5043179;28;20536;-77
2022/07/16 01:03:40;;;;;;;8.75;5.20;;;;;;;15.95;68.11;102102.81;5042160;28;20061;-77
2022/07/16 01:06:07;;;;;;;7.78;5.00;;;;;;;15.98;69.57;102100.09;5045774;28;20036;-77
2022/07/16 01:08:34;;;;;;;10.10;5.30;;;;;;;16.00;67.75;102098.31;5051800;28;20017;-77
2022/07/16 01:11:00;;;;;;;10.13;5.43;;;;;;;16.02;67.99;102096.53;5049834;28;20542;-77
2022/07/16 01:13:26;;;;;;;11.73;5.90;;;;;;;16.04;66.37;102097.31;5050232;28;20489;-77
2022/07/16 01:15:52;;;;;;;9.05;5.72;;;;;;;16.05;68.18;102088.56;5044287;28;20410;-77
2022/07/16 01:18:17;;;;;;;12.05;5.65;;;;;;;16.07;68.86;102085.94;5040223;28;20540;-77
2022/07/16 01:20:43;;;;;;;9.82;5.65;;;;;;;16.10;68.56;102094.53;5040608;28;20499;-77
2022/07/16 01:23:09;;;;;;;9.50;5.55;;;;;;;16.11;67.02;102095.41;5049960;28;20028;-77
2022/07/16 01:25:34;;;;;;;9.18;5.22;;;;;;;16.11;67.45;102085.78;5046510;28;20047;-77
2022/07/16 01:28:00;;;;;;;9.95;5.10;;;;;;;16.12;68.35;102089.28;5050159;28;20044;-77
2022/07/16 01:30:25;;;;;;;9.35;5.35;;;;;;;16.13;69.62;102084.00;5041750;28;20287;-77
2022/07/16 01:32:50;;;;;;;9.13;5.60;;;;;;;16.11;69.88;102080.56;5049070;28;20510;-77
2022/07/16 01:35:16;;;;;;;8.70;5.05;;;;;;;16.10;69.40;102086.69;5051416;28;20025;-77
2022/07/16 01:37:41;;;;;;;11.93;5.50;;;;;;;16.06;67.17;102089.44;5048156;28;20494;-77
2022/07/16 01:40:07;;;;;;;8.95;5.20;;;;;;;16.06;69.89;102090.28;5048349;28;20098;-77
2022/07/16 01:42:32;;;;;;;9.18;5.60;;;;;;;16.03;68.52;102092.16;5054614;28;20028;-77
2022/07/16 01:44:59;;;;;;;10.30;5.72;;;;;;;16.01;67.50;102099.16;5070926;28;20025;-77
2022/07/16 01:47:24;;;;;;;10.40;5.85;;;;;;;16.00;66.71;102093.06;5049491;28;20112;-77
2022/07/16 01:49:49;;;;;;;10.80;6.07;;;;;;;16.04;67.93;102096.44;5039043;28;20039;-77
2022/07/16 01:52:18;;;;;;;10.30;5.97;;;;;;;16.03;68.58;102092.16;5039571;28;20345;-77
2022/07/16 01:54:54;;;;;;;9.80;6.18;;;;;;;16.03;67.87;102086.91;5047010;28;20279;-77
2022/07/16 01:57:21;;;;;;;12.23;5.55;;;;;;;16.04;68.62;102097.31;5049495;28;20479;-77
2022/07/16 01:59:47;;;;;;;10.35;5.43;;;;;;;16.05;67.72;102090.34;5051281;28;20036;-77
2022/07/16 02:02:12;;;;;;;10.55;5.85;;;;;;;16.06;69.11;102092.91;5033710;28;20044;-77
2022/07/16 02:04:39;;;;;;;10.57;6.32;;;;;;;16.04;67.20;102094.69;5046737;28;20071;-77
2022/07/16 02:07:05;;;;;;;9.88;6.38;;;;;;;16.02;66.91;102098.28;5047592;28;20032;-77
2022/07/16 02:09:31;;;;;;;10.48;6.20;;;;;;;16.00;68.77;102084.38;5040990;28;20711;-77
2022/07/16 02:11:56;;;;;;;10.52;6.40;;;;;;;15.98;67.29;102089.63;5045420;28;20048;-76
2022/07/16 02:14:22;;;;;;;10.80;6.22;;;;;;;16.00;69.46;102084.38;5050713;28;20107;-77
2022/07/16 02:16:47;;;;;;;10.65;6.57;;;;;;;16.00;68.47;102081.75;5040807;28;20087;-77
2022/07/16 02:19:13;;;;;;;11.98;6.80;;;;;;;15.97;67.07;102084.44;5037358;28;20033;-77
2022/07/16 02:21:38;;;;;;;12.90;6.88;;;;;;;15.97;66.93;102084.44;5043761;28;20036;-77
2022/07/16 02:24:03;;;;;;;9.80;6.40;;;;;;;15.95;68.89;102088.88;5047815;28;20483;-77
2022/07/16 02:26:29;;;;;;;12.48;6.78;;;;;;;15.95;67.74;102087.13;5056419;28;20406;-77
2022/07/16 02:28:54;;;;;;;12.13;7.22;;;;;;;15.92;67.47;102081.09;5046179;28;20434;-77
2022/07/16 02:31:20;;;;;;;10.32;6.80;;;;;;;15.91;67.43;102082.84;5034462;28;20125;-77
2022/07/16 02:33:46;;;;;;;10.63;6.20;;;;;;;15.92;68.94;102086.31;5045669;28;20104;-77
2022/07/16 02:36:12;;;;;;;11.48;6.70;;;;;;;15.93;68.55;102070.59;5044608;28;20029;-76
2022/07/16 02:38:37;;;;;;;10.80;6.80;;;;;;;15.93;67.34;102075.81;5047504;28;20032;-76
2022/07/16 02:41:02;;;;;;;11.45;7.22;;;;;;;15.94;66.89;102077.53;5049461;28;20425;-77
2022/07/16 02:43:28;;;;;;;13.65;7.50;;;;;;;15.97;67.80;102079.19;5041880;28;20163;-77
2022/07/16 02:45:54;;;;;;;14.82;7.38;;;;;;;16.00;67.01;102076.53;5043034;28;20025;-77
2022/07/16 02:48:19;;;;;;;14.95;8.07;;;;;;;16.05;68.48;102079.88;5048276;28;20032;-77
2022/07/16 02:50:44;;;;;;;11.82;7.30;;;;;;;16.05;67.73;102077.25;5049116;28;20095;-77
2022/07/16 02:53:10;;;;;;;15.10;8.15;;;;;;;16.05;68.49;102070.25;5047732;28;20021;-77
2022/07/16 02:55:36;;;;;;;19.45;9.40;;;;;;;16.07;66.51;102071.09;5050022;28;20021;-77
2022/07/16 02:58:02;;;;;;;17.75;9.50;;;;;;;16.06;67.52;102072.00;5037058;28;20467;-77
2022/07/16 03:00:28;;;;;;;21.42;9.93;;;;;;;16.09;67.89;102071.91;5043828;28;20171;-80
2022/07/16 03:02:53;;;;;;;17.67;9.02;;;;;;;16.13;68.54;102065.69;5047571;28;20056;-80
2022/07/16 03:05:19;;;;;;;16.52;8.68;;;;;;;16.12;68.85;102066.59;5048432;28;20123;-80
2022/07/16 03:07:45;;;;;;;15.35;8.18;;;;;;;16.13;68.14;102073.53;5048600;28;20040;-80
2022/07/16 03:10:11;;;;;;;15.30;9.57;;;;;;;16.13;67.41;102072.69;5044580;28;20032;-80
2022/07/16 03:12:36;;;;;;;21.58;9.70;;;;;;;16.14;67.58;102082.25;5042011;28;20471;-80
2022/07/16 03:15:02;;;;;;;16.83;9.07;;;;;;;16.14;66.20;102079.63;5039601;28;20029;-80
2022/07/16 03:17:28;;;;;;;13.73;8.98;;;;;;;16.14;67.62;102077.88;5028971;28;20048;-80
2022/07/16 03:19:53;;;;;;;15.48;8.73;;;;;;;16.14;66.24;102077.00;5045291;28;20403;-80
2022/07/16 03:22:18;;;;;;;15.30;9.07;;;;;;;16.16;66.61;102083.06;5051169;28;20050;-79
2022/07/16 03:24:44;;;;;;;15.55;9.07;;;;;;;16.16;67.65;102085.69;5046951;28;20036;-80
2022/07/16 03:27:10;;;;;;;15.07;8.83;;;;;;;16.17;67.28;102083.00;5048190;28;20024;-80
2022/07/16 03:29:36;;;;;;;17.77;8.98;;;;;;;16.17;66.79;102087.41;5048150;28;20291;-80
2022/07/16 03:32:01;;;;;;;16.90;9.20;;;;;;;16.18;67.80;102083.88;5039071;28;20025;-80
2022/07/16 03:34:26;;;;;;;15.40;8.35;;;;;;;16.19;68.61;102081.22;5038772;28;20099;-80
2022/07/16 03:36:52;;;;;;;16.98;9.00;;;;;;;16.20;67.12;102097.78;5047975;28;20395;-80
2022/07/16 03:39:17;;;;;;;13.65;8.68;;;;;;;16.23;68.03;102095.09;5049504;28;20364;-80
2022/07/16 03:41:43;;;;;;;17.42;8.02;;;;;;;16.25;66.89;102106.34;5045516;28;20056;-79
2022/07/16 03:44:09;;;;;;;13.48;8.25;;;;;;;16.27;67.90;102101.94;5041833;28;20021;-79
2022/07/16 03:46:35;;;;;;;15.07;8.60;;;;;;;16.27;68.09;102106.31;5048701;28;20048;-80
2022/07/16 03:49:02;;;;;;;13.07;8.10;;;;;;;16.28;67.34;102102.81;5052349;28;20033;-79
2022/07/16 03:51:28;;;;;;;13.00;7.80;;;;;;;16.31;68.16;102111.41;5059372;28;20029;-80
2022/07/16 03:53:53;;;;;;;14.75;7.47;;;;;;;16.32;68.77;102113.13;5061170;28;20104;-80
2022/07/16 03:56:19;;;;;;;12.95;7.63;;;;;;;16.36;68.10;102119.16;5049859;28;20039;-80
2022/07/16 03:58:44;;;;;;;12.82;7.60;;;;;;;16.36;68.57;102116.53;5037066;28;20115;-76
2022/07/16 04:01:10;;;;;;;14.18;7.22;;;;;;;16.38;69.53;102114.72;5049176;28;20029;-77
2022/07/16 04:03:37;;;;;;;13.05;7.13;;;;;;;16.38;69.71;102118.19;5050674;28;20072;-76
2022/07/16 04:06:02;;;;;;;12.00;7.13;;;;;;;16.37;69.32;102121.75;5052290;28;20025;-77
2022/07/16 04:08:28;;;;;;;12.93;7.00;;;;;;;16.39;70.53;102124.28;5043875;28;20037;-77
2022/07/16 04:10:54;;;;;;;15.35;7.45;;;;;;;16.36;70.20;102120.03;5058433;28;20025;-77
2022/07/16 04:13:19;;;;;;;12.82;7.20;;;;;;;16.34;71.03;102123.56;5042476;28;20066;-77
2022/07/16 04:15:45;;;;;;;11.70;6.63;;;;;;;16.31;71.00;102126.28;5051520;28;20028;-77
2022/07/16 04:18:12;;;;;;;13.27;6.63;;;;;;;16.26;71.35;102126.38;5047851;28;20063;-77
2022/07/16 04:20:37;;;;;;;14.10;6.90;;;;;;;16.22;71.80;102123.91;5052241;28;20459;-77
2022/07/16 04:23:02;;;;;;;13.90;7.07;;;;;;;16.19;71.45;102130.06;5045224;28;20040;-77
2022/07/16 04:25:28;;;;;;;13.65;7.03;;;;;;;16.15;72.34;102134.53;5041665;28;20036;-77
2022/07/16 04:27:54;;;;;;;10.70;6.60;;;;;;;16.18;72.64;102138.81;5051296;28;20040;-77
2022/07/16 04:30:19;;;;;;;13.15;7.35;;;;;;;16.14;73.57;102131.94;5051363;28;20036;-80
2022/07/16 04:32:44;;;;;;;13.43;6.38;;;;;;;16.16;73.57;102131.03;5047991;28;20032;-80
2022/07/16 04:35:12;;;;;;;11.77;6.63;;;;;;;16.16;74.39;102135.41;5045413;28;20503;-80
2022/07/16 04:37:37;;;;;;;11.35;6.70;;;;;;;16.14;74.73;102134.56;5033301;28;20022;-80
2022/07/16 04:40:04;;;;;;;10.40;6.53;;;;;;;16.14;75.00;102138.03;5035540;28;20024;-80
2022/07/16 04:42:30;;;;;;;12.85;6.43;;;;;;;16.13;75.54;102138.06;5048956;28;20039;-80
2022/07/16 04:44:55;;;;;;;12.98;6.30;;;;;;;16.13;74.52;102140.69;5045210;28;20046;-80
2022/07/16 04:47:20;;;;;;;10.38;6.50;;;;;;;16.16;76.20;102143.25;5050683;28;20052;-80
2022/07/16 04:49:46;;;;;;;10.30;6.60;;;;;;;16.18;77.24;102146.66;5050032;28;20099;-81
2022/07/16 04:52:11;;;;;;;12.40;6.53;;;;;;;16.18;77.02;102154.50;5044626;28;20029;-79
2022/07/16 04:54:36;;;;;;;11.23;6.40;;;;;;;16.16;76.31;102154.56;5042960;28;20177;-80
2022/07/16 04:57:02;;;;;;;13.27;6.45;;;;;;;16.17;76.65;102158.06;5048735;28;20074;-80
2022/07/16 04:59:27;;;;;;;11.30;7.10;;;;;;;16.20;78.20;102164.03;5042978;28;20025;-80
2022/07/16 05:01:52;;;;;;;12.18;6.78;;;;;;;16.22;78.54;102158.78;5040132;28;20053;-80
2022/07/16 05:04:18;;;;;;;14.13;7.30;;;;;;;16.23;80.07;102162.25;5035899;28;20036;-80
2022/07/16 05:06:44;;;;;;;13.65;7.05;;;;;;;16.27;80.27;102164.75;5031855;28;20037;-80
2022/07/16 05:09:10;;;;;;;13.07;6.82;;;;;;;16.28;80.65;102166.47;5031915;28;20035;-80
2022/07/16 05:11:35;;;;;;;16.00;7.05;;;;;;;16.30;80.90;102169.06;5039301;28;20033;-80
2022/07/16 05:14:00;;;;;;;12.15;6.72;;;;;;;16.33;80.95;102169.81;5033798;28;20575;-81
2022/07/16 05:16:25;;;;;;;13.13;7.30;;;;;;;16.34;81.55;102165.44;5036770;28;20371;-80
2022/07/16 05:18:51;;;;;;;11.80;6.90;;;;;;;16.39;81.67;102168.78;5029299;28;20284;-80
2022/07/16 05:21:17;;;;;;;12.10;7.15;;;;;;;16.42;82.85;102180.06;5033213;28;20362;-81
2022/07/16 05:23:42;;;;;;;12.73;7.25;;;;;;;16.45;82.08;102172.09;5029282;28;20025;-81
2022/07/16 05:26:08;;;;;;;12.15;6.90;;;;;;;16.48;82.53;102174.66;5034012;28;20029;-80
2022/07/16 05:28:34;;;;;;;13.43;7.25;;;;;;;16.51;83.60;102176.34;5036034;28;20044;-81
2022/07/16 05:30:59;;;;;;;14.00;6.90;;;;;;;16.56;84.34;102182.28;5033126;28;20024;-81
2022/07/16 05:33:25;;;;;;;12.05;7.10;;;;;;;16.62;83.48;102181.31;5034859;28;20082;-81
2022/07/16 05:35:51;;;;;;;15.82;7.38;;;;;;;16.67;83.26;102182.03;5043804;28;20152;-81
2022/07/16 05:38:17;;;;;;;15.63;7.47;;;;;;;16.72;83.36;102188.84;5031770;28;20195;-80
2022/07/16 05:40:43;;;;;;;13.60;7.40;;;;;;;16.77;82.51;102189.59;5037967;28;20025;-80
2022/07/16 05:43:08;;;;;;;12.60;6.90;;;;;;;16.83;83.52;102183.31;5033572;28;20033;-81
2022/07/16 05:45:33;;;;;;;13.30;6.85;;;;;;;16.88;82.37;102189.28;5043807;28;20033;-81
2022/07/16 05:47:59;;;;;;;12.10;6.32;;;;;;;16.96;83.08;102190.78;5043043;28;20049;-80
2022/07/16 05:50:24;;;;;;;11.63;5.90;;;;;;;16.99;81.79;102192.44;5031604;28;20024;-81
2022/07/16 05:52:50;;;;;;;10.48;6.18;;;;;;;17.05;82.00;102187.06;5029858;28;20467;-81
2022/07/16 05:55:16;;;;;;;9.95;5.40;;;;;;;17.08;82.07;102194.81;5037876;28;20033;-81
2022/07/16 05:57:41;;;;;;;9.88;5.13;;;;;;;17.12;81.73;102196.47;5038037;28;20033;-81
2022/07/16 06:00:10;;;;;;;10.25;4.82;;;;;;;17.15;80.59;102196.34;5040847;28;20083;-80
2022/07/16 06:02:35;;;;;;;8.07;4.15;;;;;;;17.12;80.05;102193.84;5037291;28;20037;-80
2022/07/16 06:05:01;;;;;;;8.45;4.10;;;;;;;17.12;80.16;102209.56;5039455;28;20041;-80
2022/07/16 06:07:26;;;;;;;9.07;3.90;;;;;;;17.11;78.81;102206.97;5035873;28;20045;-80
2022/07/16 06:09:51;;;;;;;7.47;4.10;;;;;;;17.10;79.16;102213.13;5053571;28;20093;-81
2022/07/16 06:12:16;;;;;;;9.83;4.77;;;;;;;17.11;80.31;102202.59;5046356;28;20289;-80
2022/07/16 06:14:42;;;;;;;9.70;4.63;;;;;;;17.12;80.03;102214.78;5043699;28;20294;-80
2022/07/16 06:17:07;;;;;;;11.88;4.57;;;;;;;17.16;79.22;102226.03;5031460;28;20037;-80
2022/07/16 06:19:32;;;;;;;8.15;4.50;;;;;;;17.19;78.79;102218.09;5049076;28;20108;-79
2022/07/16 06:21:58;;;;;;;8.93;4.15;;;;;;;17.22;78.06;102224.09;5039311;28;20120;-80
2022/07/16 06:24:23;;;;;;;10.13;4.60;;;;;;;17.28;78.47;102223.06;5046053;28;20025;-80
2022/07/16 06:26:48;;;;;;;7.68;4.13;;;;;;;17.36;78.76;102228.94;5047087;28;20027;-80
2022/07/16 06:29:15;;;;;;;7.85;4.80;;;;;;;17.43;78.42;102230.47;5048993;28;20068;-80
2022/07/16 06:31:41;;;;;;;10.02;4.68;;;;;;;17.50;77.95;102229.38;5032077;28;20427;-80
2022/07/16 06:34:06;;;;;;;9.27;3.90;;;;;;;17.54;77.76;102230.13;5046107;28;20031;-80
2022/07/16 06:36:32;;;;;;;7.20;3.60;;;;;;;17.61;75.83;102226.44;5045594;28;20031;-80
2022/07/16 06:38:57;;;;;;;8.70;3.78;;;;;;;17.70;74.59;102239.28;5045294;28;20039;-80
2022/07/16 06:41:22;;;;;;;6.47;3.23;;;;;;;17.80;75.49;102239.88;5038926;28;20060;-80
2022/07/16 06:43:48;;;;;;;5.05;2.60;;;;;;;17.87;73.33;102241.41;5032216;28;20357;-80
2022/07/16 06:46:13;;;;;;;5.30;2.40;;;;;;;17.98;73.31;102244.53;5045699;28;20025;-81
2022/07/16 06:48:38;;;;;;;5.70;2.30;;;;;;;18.08;71.70;102251.22;5041021;28;20728;-80
2022/07/16 06:51:04;;;;;;;6.75;2.30;;;;;;;18.14;70.93;102249.25;5045267;28;20283;-80
2022/07/16 06:53:29;;;;;;;4.43;2.55;;;;;;;18.23;71.03;102255.06;5037174;28;20102;-80
2022/07/16 06:55:54;;;;;;;4.75;2.50;;;;;;;18.33;71.46;102256.50;5031280;28;20472;-80
2022/07/16 06:58:20;;;;;;;6.20;2.58;;;;;;;18.39;69.62;102265.03;5042836;28;20148;-80
2022/07/16 07:00:45;;;;;;;6.83;2.57;;;;;;;18.47;68.79;102257.75;5040188;28;20088;-80
2022/07/16 07:03:11;;;;;;;7.63;2.50;;;;;;;18.61;70.36;102261.72;5039868;28;20731;-80
2022/07/16 07:05:37;;;;;;;5.20;2.40;;;;;;;18.77;68.67;102274.25;5032065;28;20287;-80
2022/07/16 07:08:03;;;;;;;5.50;2.20;;;;;;;18.88;65.92;102269.50;5049765;28;20036;-80
2022/07/16 07:10:28;;;;;;;6.22;2.15;;;;;;;18.93;66.99;102278.06;5057910;28;20481;-80
2022/07/16 07:12:54;;;;;;;8.10;2.28;;;;;;;19.01;65.38;102282.19;5055226;28;20032;-80
2022/07/16 07:15:19;;;;;;;4.20;2.40;;;;;;;19.07;63.57;102287.22;5036655;28;20486;-80
2022/07/16 07:17:45;;;;;;;6.22;2.40;;;;;;;19.09;64.59;102290.66;5041363;28;20032;-81
2022/07/16 07:20:11;;;;;;;6.32;2.28;;;;;;;19.04;62.51;102301.31;5049604;28;20017;-80
2022/07/16 07:22:36;;;;;;;5.57;2.10;;;;;;;19.06;62.42;102306.53;5048478;28;20024;-80
2022/07/16 07:25:02;;;;;;;6.15;2.20;;;;;;;19.02;62.38;102304.94;5072245;28;20013;-80
2022/07/16 07:27:28;;;;;;;4.85;1.90;;;;;;;19.02;61.91;102295.28;5062382;28;20032;-80
2022/07/16 07:29:53;;;;;;;7.78;2.17;;;;;;;19.09;60.16;102309.91;5053424;28;20025;-80
2022/07/16 07:32:18;;;;;;;7.10;2.20;;;;;;;19.20;61.86;102312.16;5053292;28;20099;-80
2022/07/16 07:34:44;;;;;;;3.72;1.88;;;;;;;19.28;59.72;102312.72;5053467;28;20067;-80
2022/07/16 07:37:09;;;;;;;5.05;1.90;;;;;;;19.38;60.71;102318.53;5053301;28;20088;-80
2022/07/16 07:39:35;;;;;;;8.90;2.38;;;;;;;19.52;60.60;102313.63;5053428;28;20090;-80
2022/07/16 07:42:00;;;;;;;5.57;1.98;;;;;;;19.66;59.73;102313.97;5070822;28;20020;-80
2022/07/16 07:44:26;;;;;;;4.55;2.10;;;;;;;19.76;58.19;102309.22;5039623;28;20131;-81
2022/07/16 07:46:51;;;;;;;8.45;2.15;;;;;;;19.83;57.49;102316.81;5039278;28;20083;-81
2022/07/16 07:49:16;;;;;;;5.65;1.85;;;;;;;19.92;58.02;102316.47;5044157;28;20017;-81
2022/07/16 07:51:42;;;;;;;6.25;1.83;;;;;;;20.03;57.78;102327.41;5044698;28;20020;-81
2022/07/16 07:54:07;;;;;;;5.07;1.95;;;;;;;20.25;55.65;102311.63;5066687;28;20021;-81
2022/07/16 07:56:32;;;;;;;3.45;1.88;;;;;;;20.57;55.23;102318.22;5048885;28;20485;-81
2022/07/16 07:58:58;;;;;;;5.10;1.90;;;;;;;21.18;53.84;102311.19;5052553;28;20056;-81
2022/07/16 08:01:23;;;;;;;5.65;2.00;;;;;;;21.66;51.67;102315.16;5040598;28;20100;-82
2022/07/16 08:03:48;;;;;;;6.20;1.80;;;;;;;22.37;51.32;102318.81;5042983;28;20326;-81
2022/07/16 08:06:14;;;;;;;4.63;1.67;;;;;;;23.23;48.92;102321.44;5044520;28;20104;-82
2022/07/16 08:08:39;;;;;;;5.35;1.58;;;;;;;23.76;45.83;102323.00;5045841;28;20453;-82
2022/07/16 08:11:05;;;;;;;5.20;1.65;;;;;;;24.36;47.28;102321.38;5049922;28;20037;-81
2022/07/16 08:13:30;;;;;;;2.28;1.60;;;;;;;25.00;43.60;102322.88;5053225;28;20116;-82
2022/07/16 08:15:55;;;;;;;4.57;1.73;;;;;;;24.89;40.85;102322.63;5042750;28;20044;-82
2022/07/16 08:18:20;;;;;;;6.10;1.80;;;;;;;24.40;42.82;102317.59;5051315;28;20382;-82
2022/07/16 08:20:46;;;;;;;3.90;1.70;;;;;;;23.94;43.38;102327.28;5067245;28;20679;-82
2022/07/16 08:23:11;;;;;;;6.35;2.00;;;;;;;23.72;43.81;102332.91;5061469;28;20656;-82
2022/07/16 08:25:46;;;;;;;4.38;1.77;;;;;;;23.83;45.81;102335.81;5042400;28;20451;-81
2022/07/16 08:28:13;;;;;;;4.07;1.90;;;;;;;23.83;45.77;102334.94;5043282;28;20033;-81
2022/07/16 08:30:41;;;;;;;6.20;1.80;;;;;;;23.73;44.88;102337.28;5045287;28;20108;-82
2022/07/16 08:33:06;;;;;;;5.80;1.85;;;;;;;23.66;45.69;102345.63;5055484;28;20056;-82
2022/07/16 08:35:32;;;;;;;4.30;1.80;;;;;;;23.98;46.33;102345.56;5051767;28;20056;-81
2022/07/16 08:37:57;;;;;;;5.13;1.92;;;;;;;24.57;45.07;102349.25;5042185;28;20368;-81
2022/07/16 08:40:23;;;;;;;3.42;1.73;;;;;;;24.50;45.03;102349.72;5046239;28;20275;-82
2022/07/16 08:42:49;;;;;;;3.70;1.90;;;;;;;23.88;46.62;102356.75;5052516;28;20142;-80
2022/07/16 08:45:16;;;;;;;4.13;1.92;;;;;;;23.71;47.25;102357.69;5037925;28;20033;-81
2022/07/16 08:47:42;;;;;;;5.43;2.00;;;;;;;23.57;47.52;102370.81;5071311;28;20105;-81
2022/07/16 08:50:13;;;;;;;4.88;2.13;;;;;;;23.47;46.98;102373.06;5052097;28;20154;-81
2022/07/16 08:52:43;;;;;;;4.28;1.95;;;;;;;23.17;45.20;102377.31;5041855;28;20127;-81
2022/07/16 08:55:09;;;;;;;3.95;2.10;;;;;;;22.70;46.69;102385.88;5049591;28;20028;-81
2022/07/16 08:57:37;;;;;;;5.25;1.70;;;;;;;22.35;47.39;102386.72;5050562;28;20032;-81
2022/07/16 09:00:05;;;;;;;3.70;1.70;;;;;;;22.55;48.01;102386.63;5046695;28;20598;-81
2022/07/16 09:02:31;;;;;;;4.05;1.52;;;;;;;22.92;48.53;102377.75;5053524;28;20029;-81
2022/07/16 09:04:56;;;;;;;4.45;1.70;;;;;;;23.28;45.24;102382.91;5050928;28;20071;-81
2022/07/16 09:07:22;;;;;;;4.70;1.53;;;;;;;23.68;43.17;102389.59;5049973;28;20025;-81
2022/07/16 09:09:47;;;;;;;4.30;1.35;;;;;;;23.92;41.90;102384.78;5073342;28;20273;-82
2022/07/16 09:12:51;;;;;;;3.28;1.50;;;;;;;24.03;44.16;102388.53;5066502;28;20445;-81
2022/07/16 09:15:31;;;;;;;5.82;1.60;;;;;;;23.92;45.45;102400.69;5036910;28;20602;-81
2022/07/16 09:18:10;;;;;;;3.95;1.60;;;;;;;23.58;43.76;102391.06;5048114;28;20029;-82
2022/07/16 09:20:38;;;;;;;2.58;1.42;;;;;;;23.34;44.53;102403.75;5045044;28;20044;-82
2022/07/16 09:23:15;;;;;;;3.45;1.60;;;;;;;23.24;44.40;102399.88;5053741;28;20458;-81
2022/07/16 09:25:47;;;;;;;5.10;1.80;;;;;;;23.20;44.04;102395.69;5045427;28;20120;-81
2022/07/16 09:28:12;;;;;;;2.65;1.40;;;;;;;23.12;44.05;102401.38;5041947;28;20029;-82
2022/07/16 09:30:38;;;;;;;5.53;1.70;;;;;;;23.19;44.69;102399.28;5041507;28;20031;-82
2022/07/16 09:33:13;;;;;;;3.72;1.38;;;;;;;23.40;44.71;102408.75;5037841;28;20033;-81
2022/07/16 09:35:38;;;;;;;3.55;1.33;;;;;;;23.54;42.97;102398.28;5035500;28;20028;-81
2022/07/16 09:38:07;;;;;;;4.20;1.50;;;;;;;23.65;42.81;102408.31;5062147;28;20111;-83
2022/07/16 09:40:38;;;;;;;5.93;1.75;;;;;;;23.65;42.95;102407.47;5066659;28;20835;-81
2022/07/16 09:43:15;;;;;;;37.13;8.25;;;;;;;23.86;44.13;102404.53;5050135;28;20475;-82
2022/07/16 09:45:46;;;;;;;5.63;1.88;;;;;;;24.03;44.13;102403.56;5044187;28;20033;-81
2022/07/16 09:48:18;;;;;;;6.75;2.00;;;;;;;24.01;42.00;102409.00;5064999;28;20106;-81
2022/07/16 09:50:43;;;;;;;8.02;1.90;;;;;;;23.93;41.56;102413.84;5047266;28;20087;-81
2022/07/16 09:53:14;;;;;;;6.70;1.98;;;;;;;23.88;41.64;102415.03;5046047;28;20036;-81
2022/07/16 09:55:59;;;;;;;6.20;1.90;;;;;;;23.95;42.85;102416.41;5036893;28;20029;-81
2022/07/16 09:58:25;;;;;;;6.40;1.80;;;;;;;23.76;42.85;102415.69;5035523;28;20029;-81
2022/07/16 10:00:50;;;;;;;4.53;1.48;;;;;;;23.60;41.47;102419.19;5040026;28;20037;-81
2022/07/16 10:03:16;;;;;;;3.95;1.58;;;;;;;23.55;42.97;102426.47;5055133;28;20028;-81
2022/07/16 10:05:42;;;;;;;3.47;1.65;;;;;;;23.55;42.15;102421.19;5042660;28;20134;-81
2022/07/16 10:08:08;;;;;;;5.15;1.80;;;;;;;23.51;42.11;102422.28;5035773;28;20021;-82
2022/07/16 10:10:33;;;;;;;4.38;1.52;;;;;;;23.74;42.96;102428.16;5050565;28;20037;-81
2022/07/16 10:12:59;;;;;;;2.92;1.60;;;;;;;24.10;41.12;102422.63;5051506;28;20032;-81
2022/07/16 10:15:24;;;;;;;4.50;1.60;;;;;;;24.27;41.26;102423.47;5048141;28;20021;-81
2022/07/16 10:17:49;;;;;;;3.83;1.80;;;;;;;24.32;40.57;102416.09;5049703;28;20033;-81
2022/07/16 10:20:20;;;;;;;5.55;1.70;;;;;;;24.42;42.81;102427.06;5042525;28;20041;-81
2022/07/16 10:22:47;;;;;;;6.45;1.80;;;;;;;24.73;39.85;102431.44;5049977;28;20107;-81
2022/07/16 10:25:15;;;;;;;4.18;1.52;;;;;;;24.39;40.40;102438.69;5049478;28;20017;-82
2022/07/16 10:27:42;;;;;;;4.22;1.60;;;;;;;24.00;41.11;102435.56;5049145;28;20059;-82
2022/07/16 10:30:13;;;;;;;3.80;1.70;;;;;;;24.06;40.49;102435.22;5051661;28;20036;-82
2022/07/16 10:33:00;;;;;;;5.80;1.70;;;;;;;24.47;41.62;102435.59;5034565;28;20223;-82
2022/07/16 10:35:38;;;;;;;3.03;1.55;;;;;;;24.14;37.81;102438.31;5038600;28;20051;-81
2022/07/16 10:38:16;;;;;;;3.42;1.30;;;;;;;23.74;39.54;102438.75;5050228;28;20024;-82
2022/07/16 10:40:43;;;;;;;3.83;1.70;;;;;;;23.38;41.59;102450.31;5056392;28;20025;-82
2022/07/16 10:43:10;;;;;;;4.28;1.90;;;;;;;23.46;40.35;102436.69;5044875;28;20029;-81
2022/07/16 10:45:56;;;;;;;2.40;1.40;;;;;;;23.78;41.98;102446.44;5047314;28;20478;-82
2022/07/16 10:48:49;;;;;;;3.35;1.60;;;;;;;23.79;38.68;102439.38;5045007;28;20036;-82
2022/07/16 10:51:17;;;;;;;4.50;1.40;;;;;;;23.86;38.52;102454.00;5043518;28;20048;-81
2022/07/16 10:53:58;;;;;;;3.65;1.50;;;;;;;23.66;38.95;102447.13;5039291;28;20025;-81
2022/07/16 10:56:38;;;;;;;2.92;1.52;;;;;;;23.31;40.33;102456.84;5044723;28;20482;-81
2022/07/16 10:59:07;;;;;;;2.85;1.60;;;;;;;23.20;39.96;102460.03;5046688;28;20036;-82
2022/07/16 11:01:34;;;;;;;5.18;1.48;;;;;;;23.21;39.06;102464.41;5051982;28;20024;-81
2022/07/16 11:03:59;;;;;;;4.18;1.60;;;;;;;23.33;39.74;102467.38;5069555;28;20501;-82
2022/07/16 11:06:26;;;;;;;6.88;1.77;;;;;;;23.05;38.94;102460.84;5064914;28;20072;-81
2022/07/16 11:08:52;;;;;;;4.43;1.60;;;;;;;22.88;39.92;102467.88;5049770;28;20141;-81
2022/07/16 11:11:19;;;;;;;3.35;1.50;;;;;;;22.61;39.86;102470.91;5046552;28;20032;-81
2022/07/16 11:13:46;;;;;;;2.08;1.40;;;;;;;22.39;39.69;102470.19;5037999;28;20049;-81
2022/07/16 11:16:11;;;;;;;4.22;1.45;;;;;;;22.35;40.58;102458.94;5048652;28;20112;-81
2022/07/16 11:18:37;;;;;;;2.72;1.65;;;;;;;22.43;39.12;102464.72;5046177;28;20104;-81
2022/07/16 11:21:07;;;;;;;4.28;1.55;;;;;;;22.63;41.12;102461.13;5047080;28;20036;-81